Time;durP1;ratioP1;P1;durP2;ratioP2;P2;SDS_P1;SDS_P2;PMS_P1;PMS_P2;Temp;Humidity;BMP_temperature;BMP_pressure;BME280_temperature;BME280_humidity;BME280_pressure;Samples;Min_cycle;Max_cycle;Signal;HPM_P1;HPM_P2
2021/03/03 00:00:20;;;;;;;0.60;0.60;;;1.10;99.90;;;;;;4922196;29;20208;-82
2021/03/03 00:02:47;;;;;;;0.60;0.60;;;1.00;99.90;;;;;;4922216;29;20268;-81
2021/03/03 00:05:14;;;;;;;0.60;0.60;;;1.70;99.90;;;;;;4922279;29;20679;-81
2021/03/03 00:07:40;;;;;;;0.50;0.50;;;1.60;99.90;;;;;;4922000;29;20209;-81
2021/03/03 00:10:08;;;;;;;0.60;0.60;;;1.10;99.90;;;;;;4921158;29;20253;-81
2021/03/03 00:12:35;;;;;;;0.50;0.50;;;0.50;99.90;;;;;;4922450;29;20208;-81
2021/03/03 00:15:02;;;;;;;0.50;0.50;;;0.10;99.90;;;;;;4920131;29;20391;-82
2021/03/03 00:17:28;;;;;;;0.52;0.52;;;1.00;99.90;;;;;;4919197;29;20220;-82
2021/03/03 00:19:54;;;;;;;0.60;0.60;;;0.10;99.90;;;;;;4919230;29;20216;-81
2021/03/03 00:22:23;;;;;;;0.60;0.60;;;-0.10;99.90;;;;;;4928124;29;20219;-81
2021/03/03 00:27:33;;;;;;;0.50;0.50;;;0.80;99.90;;;;;;5211154;23;20233;-79
2021/03/03 00:37:48;;;;;;;0.60;0.60;;;0.60;99.90;;;;;;5352641;23;20253;-80
2021/03/03 00:40:20;;;;;;;0.60;0.60;;;0.60;99.90;;;;;;4932133;29;20225;-81
2021/03/03 00:42:51;;;;;;;0.60;0.60;;;4.50;99.90;;;;;;4937728;29;20221;-81
2021/03/03 00:45:20;;;;;;;0.50;0.50;;;2.80;99.90;;;;;;4934604;29;20263;-80
2021/03/03 00:47:46;;;;;;;0.55;0.55;;;1.50;99.90;;;;;;4935765;29;20213;-80
2021/03/03 00:50:14;;;;;;;0.60;0.60;;;1.00;99.90;;;;;;4935844;29;20209;-80
2021/03/03 00:52:41;;;;;;;0.60;0.60;;;2.80;99.90;;;;;;4936469;29;20286;-80
2021/03/03 00:55:09;;;;;;;0.50;0.50;;;0.90;99.90;;;;;;4937073;29;20282;-81
2021/03/03 00:57:38;;;;;;;0.60;0.60;;;2.30;99.90;;;;;;4936909;29;20437;-81
2021/03/03 01:00:06;;;;;;;0.60;0.60;;;1.60;99.90;;;;;;4936664;29;20233;-81
2021/03/03 01:05:12;;;;;;;0.60;0.60;;;0.60;99.90;;;;;;5456496;23;20255;-80
2021/03/03 01:07:40;;;;;;;0.60;0.60;;;3.00;99.90;;;;;;4942341;29;20199;-80
2021/03/03 01:10:10;;;;;;;0.60;0.60;;;2.10;99.90;;;;;;4941886;29;20224;-80
2021/03/03 01:12:37;;;;;;;0.60;0.60;;;1.00;99.90;;;;;;4942053;29;20216;-82
2021/03/03 01:15:05;;;;;;;0.60;0.60;;;1.30;99.90;;;;;;4941980;29;20216;-81
2021/03/03 01:17:33;;;;;;;0.60;0.60;;;0.50;99.90;;;;;;4941142;29;20241;-82
2021/03/03 01:19:59;;;;;;;0.60;0.60;;;1.00;99.90;;;;;;4939393;29;20209;-82
2021/03/03 01:22:27;;;;;;;0.60;0.60;;;1.30;99.90;;;;;;4939530;29;20288;-81
2021/03/03 01:24:54;;;;;;;0.60;0.60;;;-0.50;99.90;;;;;;4939305;29;20197;-81
2021/03/03 01:27:22;;;;;;;0.60;0.60;;;4.50;99.90;;;;;;4939415;29;20237;-82
2021/03/03 01:29:48;;;;;;;0.60;0.60;;;1.30;99.90;;;;;;4936532;29;20217;-82
2021/03/03 01:32:15;;;;;;;0.60;0.60;;;2.70;99.90;;;;;;4935162;29;20219;-82
2021/03/03 01:34:42;;;;;;;0.60;0.60;;;-0.50;99.90;;;;;;4935778;29;20212;-82
2021/03/03 01:37:08;;;;;;;0.52;0.52;;;0.10;99.90;;;;;;4934296;29;20205;-82
2021/03/03 01:39:35;;;;;;;0.50;0.50;;;0.40;99.90;;;;;;4934470;29;20201;-82
2021/03/03 01:42:01;;;;;;;0.50;0.50;;;1.00;99.90;;;;;;4934005;29;20240;-82
2021/03/03 01:44:29;;;;;;;0.60;0.60;;;1.60;99.90;;;;;;4933797;29;20209;-82
2021/03/03 01:53:31;;;;;;;0.50;0.50;;;3.30;99.90;;;;;;4887241;29;20187;-81
2021/03/03 01:55:57;;;;;;;0.60;0.60;;;3.00;99.90;;;;;;4884082;29;20305;-81
2021/03/03 01:58:24;;;;;;;0.60;0.60;;;0.80;99.90;;;;;;4876281;29;20207;-81
2021/03/03 02:00:59;;;;;;;0.50;0.50;;;0.70;99.90;;;;;;4878673;29;20215;-81
2021/03/03 02:03:28;;;;;;;0.60;0.60;;;2.20;99.90;;;;;;4878755;29;20199;-81
2021/03/03 02:06:06;;;;;;;0.60;0.60;;;0.50;99.90;;;;;;4878358;29;20282;-81
2021/03/03 02:08:40;;;;;;;0.60;0.60;;;3.10;99.90;;;;;;4878656;29;20698;-81
2021/03/03 02:11:14;;;;;;;0.60;0.60;;;2.10;99.90;;;;;;4878119;29;20290;-81
2021/03/03 02:13:44;;;;;;;0.50;0.50;;;1.70;99.90;;;;;;4877646;29;20197;-81
2021/03/03 02:16:19;;;;;;;0.60;0.60;;;1.20;99.90;;;;;;4877830;29;20262;-81
2021/03/03 02:18:50;;;;;;;0.60;0.60;;;-0.50;99.90;;;;;;4883784;29;20250;-81
2021/03/03 02:21:22;;;;;;;0.60;0.60;;;1.50;99.90;;;;;;4883072;29;20195;-82
2021/03/03 02:24:00;;;;;;;0.50;0.50;;;0.40;99.90;;;;;;4883242;29;20223;-82
2021/03/03 02:26:33;;;;;;;0.50;0.50;;;0.00;99.90;;;;;;4882832;29;20226;-82
2021/03/03 02:29:02;;;;;;;0.60;0.60;;;-0.30;99.90;;;;;;4883749;29;20211;-82
2021/03/03 02:31:30;;;;;;;0.60;0.60;;;1.50;99.90;;;;;;4883038;29;20195;-82
2021/03/03 02:33:59;;;;;;;0.50;0.50;;;1.00;99.90;;;;;;4882735;29;20227;-82
2021/03/03 02:36:27;;;;;;;0.60;0.60;;;1.00;99.90;;;;;;4883497;29;20195;-81
2021/03/03 02:38:53;;;;;;;0.60;0.60;;;0.80;99.90;;;;;;4868212;29;20275;-82
2021/03/03 02:41:20;;;;;;;0.60;0.60;;;0.60;99.90;;;;;;4864472;29;20755;-81
2021/03/03 02:43:47;;;;;;;0.60;0.60;;;0.60;99.90;;;;;;4863815;29;20211;-82
2021/03/03 02:46:14;;;;;;;0.50;0.50;;;0.80;99.90;;;;;;4864367;29;20214;-81
2021/03/03 02:48:41;;;;;;;0.60;0.60;;;0.80;99.90;;;;;;4864319;29;20218;-81
2021/03/03 02:51:08;;;;;;;0.50;0.50;;;0.80;99.90;;;;;;4863710;29;20250;-82
2021/03/03 02:53:34;;;;;;;0.50;0.50;;;0.80;99.90;;;;;;4863241;29;20219;-82
2021/03/03 02:56:00;;;;;;;0.60;0.60;;;0.90;99.90;;;;;;4863429;29;20278;-82
2021/03/03 02:58:26;;;;;;;0.60;0.60;;;0.90;99.90;;;;;;4863187;29;20207;-82
2021/03/03 03:00:55;;;;;;;0.60;0.60;;;0.90;99.90;;;;;;4864032;29;20215;-82
2021/03/03 03:03:27;;;;;;;0.52;0.52;;;0.10;99.90;;;;;;4863412;29;20231;-82
2021/03/03 03:05:59;;;;;;;0.60;0.60;;;0.70;99.90;;;;;;4863525;29;20755;-82
2021/03/03 03:08:28;;;;;;;0.55;0.55;;;0.60;99.90;;;;;;4863858;29;20549;-82
2021/03/03 03:10:56;;;;;;;0.50;0.50;;;0.50;99.90;;;;;;4864311;29;20234;-82
2021/03/03 03:13:23;;;;;;;0.50;0.50;;;0.50;99.90;;;;;;4881424;29;20203;-82
2021/03/03 03:15:51;;;;;;;0.60;0.60;;;0.40;99.90;;;;;;4866069;29;20416;-82
2021/03/03 03:18:24;;;;;;;0.60;0.60;;;0.40;99.90;;;;;;4862293;29;20215;-82
2021/03/03 03:20:53;;;;;;;0.50;0.50;;;0.40;99.90;;;;;;4862171;29;20279;-82
2021/03/03 03:23:21;;;;;;;0.60;0.60;;;0.30;99.90;;;;;;4862121;29;20226;-82
2021/03/03 03:25:48;;;;;;;0.55;0.55;;;0.20;99.90;;;;;;4862785;29;20224;-82
2021/03/03 03:28:14;;;;;;;0.50;0.50;;;0.20;99.90;;;;;;4861979;29;20199;-82
2021/03/03 03:30:41;;;;;;;0.60;0.60;;;0.30;99.90;;;;;;4860221;29;20207;-82
2021/03/03 03:33:08;;;;;;;0.60;0.60;;;0.40;99.90;;;;;;4859482;29;20227;-82
2021/03/03 03:35:36;;;;;;;0.57;0.57;;;0.40;99.90;;;;;;4860330;29;20211;-82
2021/03/03 03:38:03;;;;;;;0.52;0.52;;;0.40;99.90;;;;;;4860250;29;20223;-82
2021/03/03 03:40:29;;;;;;;0.50;0.50;;;0.30;99.90;;;;;;4860397;29;20207;-82
2021/03/03 03:42:56;;;;;;;0.60;0.60;;;0.30;99.90;;;;;;4860461;29;20292;-82
2021/03/03 03:45:24;;;;;;;0.52;0.52;;;0.30;99.90;;;;;;4860027;29;20211;-82
2021/03/03 03:47:50;;;;;;;0.60;0.60;;;0.40;99.90;;;;;;4860522;29;20510;-82
2021/03/03 03:50:17;;;;;;;0.50;0.50;;;0.30;99.90;;;;;;4859109;29;20733;-82
2021/03/03 03:52:44;;;;;;;0.50;0.50;;;0.40;99.90;;;;;;4858506;29;20670;-82
2021/03/03 03:55:11;;;;;;;0.60;0.60;;;0.30;99.90;;;;;;4876562;29;20217;-82
2021/03/03 03:57:47;;;;;;;0.60;0.60;;;0.30;99.90;;;;;;4876553;29;20673;-82
2021/03/03 04:00:16;;;;;;;0.60;0.60;;;0.20;99.90;;;;;;4875721;29;20202;-82
2021/03/03 04:02:42;;;;;;;0.60;0.60;;;0.10;99.90;;;;;;4875500;29;20242;-82
2021/03/03 04:05:10;;;;;;;0.60;0.60;;;0.10;99.90;;;;;;4877102;29;20195;-82
2021/03/03 04:07:36;;;;;;;0.50;0.50;;;0.10;99.90;;;;;;4877596;29;20243;-81
2021/03/03 04:10:04;;;;;;;0.60;0.60;;;0.10;99.90;;;;;;4877836;29;20211;-82
2021/03/03 04:12:30;;;;;;;0.50;0.50;;;0.20;99.90;;;;;;4878191;29;20203;-82
2021/03/03 04:14:56;;;;;;;0.60;0.60;;;-0.10;99.90;;;;;;4870738;29;20239;-82
2021/03/03 04:17:23;;;;;;;0.60;0.60;;;-0.40;99.90;;;;;;4861267;29;20211;-82
2021/03/03 04:19:49;;;;;;;0.60;0.60;;;0.20;99.90;;;;;;4860983;29;21378;-82
2021/03/03 04:22:15;;;;;;;0.60;0.60;;;0.30;99.90;;;;;;4861548;29;20254;-82
2021/03/03 04:24:41;;;;;;;0.60;0.60;;;0.20;99.90;;;;;;4860913;29;20211;-83
2021/03/03 04:27:08;;;;;;;0.55;0.55;;;0.20;99.90;;;;;;4861333;29;20215;-82
2021/03/03 04:29:34;;;;;;;0.60;0.60;;;0.20;99.90;;;;;;4861284;29;20219;-82
2021/03/03 04:32:00;;;;;;;0.60;0.60;;;0.10;99.90;;;;;;4864430;29;20217;-82
2021/03/03 04:34:27;;;;;;;0.60;0.60;;;0.80;99.90;;;;;;4861674;29;20207;-82
2021/03/03 04:36:53;;;;;;;0.50;0.50;;;1.10;99.90;;;;;;4864112;29;20259;-82
2021/03/03 04:39:19;;;;;;;0.60;0.60;;;0.10;99.90;;;;;;4863276;29;20219;-82
2021/03/03 04:41:45;;;;;;;0.60;0.60;;;0.20;99.90;;;;;;4870112;29;20284;-82
2021/03/03 04:44:12;;;;;;;0.60;0.60;;;0.20;99.90;;;;;;4856875;29;20208;-82
2021/03/03 04:46:38;;;;;;;0.50;0.50;;;-0.60;99.90;;;;;;4852951;29;20562;-82
2021/03/03 04:49:05;;;;;;;0.60;0.60;;;-0.40;99.90;;;;;;4853607;29;20212;-82
2021/03/03 04:51:31;;;;;;;0.60;0.60;;;-0.10;99.90;;;;;;4853349;29;20266;-82
2021/03/03 04:53:57;;;;;;;0.60;0.60;;;-0.10;99.90;;;;;;4853843;29;20212;-82
2021/03/03 04:56:24;;;;;;;0.60;0.60;;;-0.40;99.90;;;;;;4853869;29;20683;-82
2021/03/03 04:58:50;;;;;;;0.50;0.50;;;-0.30;99.90;;;;;;4853220;29;20199;-82
2021/03/03 05:01:17;;;;;;;0.60;0.60;;;2.40;99.90;;;;;;4852716;29;20219;-82
2021/03/03 05:03:43;;;;;;;0.50;0.50;;;0.00;99.90;;;;;;4853419;29;20307;-82
2021/03/03 05:06:10;;;;;;;0.55;0.55;;;0.30;99.90;;;;;;4855229;29;20214;-82
2021/03/03 05:08:36;;;;;;;0.60;0.60;;;-0.60;99.90;;;;;;4855866;29;20302;-82
2021/03/03 05:11:02;;;;;;;0.60;0.60;;;-0.60;99.90;;;;;;4855639;29;20212;-82
2021/03/03 05:13:29;;;;;;;0.60;0.60;;;0.00;99.90;;;;;;4852534;29;20211;-82
2021/03/03 05:15:55;;;;;;;0.60;0.60;;;1.80;99.90;;;;;;4851289;29;20212;-82
2021/03/03 05:18:22;;;;;;;0.60;0.60;;;0.40;99.90;;;;;;4850885;29;20222;-82
2021/03/03 05:20:49;;;;;;;0.60;0.60;;;-0.30;99.90;;;;;;4850874;29;20287;-82
2021/03/03 05:23:24;;;;;;;0.60;0.60;;;0.10;99.90;;;;;;4849153;29;20238;-82
2021/03/03 05:25:51;;;;;;;0.60;0.60;;;-0.10;99.90;;;;;;4849576;29;20211;-82
2021/03/03 05:28:17;;;;;;;0.60;0.60;;;-0.20;99.90;;;;;;4849259;29;20207;-82
2021/03/03 05:30:43;;;;;;;0.57;0.57;;;-0.10;99.90;;;;;;4850591;29;20216;-82
2021/03/03 05:33:09;;;;;;;0.57;0.57;;;-0.20;99.90;;;;;;4849908;29;20208;-82
2021/03/03 05:35:36;;;;;;;0.60;0.60;;;-0.30;99.90;;;;;;4850363;29;20283;-82
2021/03/03 05:38:02;;;;;;;0.57;0.57;;;-0.30;99.90;;;;;;4850847;29;20215;-82
2021/03/03 05:40:28;;;;;;;0.60;0.60;;;-0.30;99.90;;;;;;4850917;29;20750;-82
2021/03/03 05:42:55;;;;;;;0.60;0.60;;;-0.40;99.90;;;;;;4852610;29;20251;-82
2021/03/03 05:45:21;;;;;;;0.50;0.50;;;-0.40;99.90;;;;;;4854680;29;20216;-82
2021/03/03 05:47:49;;;;;;;0.50;0.50;;;-0.40;99.90;;;;;;4852262;29;20243;-82
2021/03/03 05:50:19;;;;;;;0.50;0.50;;;-0.60;99.90;;;;;;4850989;29;20247;-82
2021/03/03 05:52:47;;;;;;;0.60;0.60;;;-0.40;99.90;;;;;;4851849;29;20310;-82
2021/03/03 05:55:14;;;;;;;0.50;0.50;;;-0.40;99.90;;;;;;4854962;29;20573;-82
2021/03/03 05:57:41;;;;;;;0.50;0.50;;;-0.30;99.90;;;;;;4857978;29;20271;-82
2021/03/03 06:00:09;;;;;;;0.60;0.60;;;-0.10;99.90;;;;;;4860203;29;20204;-82
2021/03/03 06:02:39;;;;;;;0.50;0.50;;;-0.40;99.90;;;;;;4861833;29;20295;-82
2021/03/03 06:05:06;;;;;;;0.50;0.50;;;-0.30;99.90;;;;;;4862578;29;20203;-82
2021/03/03 06:07:37;;;;;;;0.50;0.50;;;-0.50;99.90;;;;;;4865037;29;20203;-82
2021/03/03 06:10:10;;;;;;;0.60;0.60;;;-0.60;99.90;;;;;;4883399;29;20482;-82
2021/03/03 06:12:36;;;;;;;0.60;0.60;;;1.70;99.90;;;;;;4885025;29;20218;-82
2021/03/03 06:15:06;;;;;;;0.60;0.60;;;-2.70;99.90;;;;;;4884801;29;20211;-82
2021/03/03 06:17:35;;;;;;;0.60;0.60;;;0.10;99.90;;;;;;4884378;29;20199;-82
2021/03/03 06:20:06;;;;;;;0.57;0.57;;;-1.90;99.90;;;;;;4884666;29;20243;-82
2021/03/03 06:22:38;;;;;;;0.60;0.60;;;2.10;99.90;;;;;;4879101;29;20216;-83
2021/03/03 06:25:23;;;;;;;0.60;0.60;;;1.50;99.90;;;;;;4867043;29;20244;-82
2021/03/03 06:27:58;;;;;;;0.60;0.60;;;1.80;99.90;;;;;;4867548;29;20204;-81
2021/03/03 06:30:32;;;;;;;0.60;0.60;;;0.40;99.90;;;;;;4867662;29;20216;-81
2021/03/03 06:33:13;;;;;;;0.50;0.50;;;1.80;99.90;;;;;;4867359;29;20212;-81
2021/03/03 06:35:42;;;;;;;0.50;0.50;;;-1.60;99.90;;;;;;4868223;29;20179;-80
2021/03/03 06:38:12;;;;;;;0.60;0.60;;;0.50;99.90;;;;;;4853655;29;20200;-82
2021/03/03 06:41:06;;;;;;;0.60;0.60;;;-0.10;99.90;;;;;;4847011;29;20580;-81
2021/03/03 06:43:32;;;;;;;0.60;0.60;;;-0.60;99.90;;;;;;4873468;29;20235;-81
2021/03/03 06:48:39;;;;;;;0.60;0.60;;;-0.10;99.90;;;;;;4993766;23;20248;-80
2021/03/03 06:51:29;;;;;;;0.60;0.60;;;0.40;99.90;;;;;;4933525;29;20233;-81
2021/03/03 06:56:59;;;;;;;0.60;0.60;;;0.70;99.90;;;;;;4905348;29;20578;-81
2021/03/03 06:59:37;;;;;;;0.60;0.60;;;-1.30;99.90;;;;;;4903278;29;20278;-81
2021/03/03 07:02:22;;;;;;;0.52;0.52;;;1.30;99.90;;;;;;4911909;29;20225;-81
2021/03/03 07:04:57;;;;;;;0.50;0.50;;;0.50;99.90;;;;;;4921112;29;20217;-81
2021/03/03 07:07:29;;;;;;;0.60;0.60;;;2.90;99.90;;;;;;4918764;29;20188;-81
2021/03/03 07:09:58;;;;;;;0.60;0.60;;;2.00;99.90;;;;;;4914498;29;20213;-82
2021/03/03 07:12:29;;;;;;;0.60;0.60;;;-1.10;99.90;;;;;;4897924;29;20198;-81
2021/03/03 07:14:59;;;;;;;0.60;0.60;;;0.30;99.90;;;;;;4886028;29;20219;-81
2021/03/03 07:17:31;;;;;;;0.60;0.60;;;2.00;99.90;;;;;;4902398;29;20223;-82
2021/03/03 07:20:03;;;;;;;0.60;0.60;;;-0.80;99.90;;;;;;4906523;29;20269;-81
2021/03/03 07:22:34;;;;;;;0.50;0.50;;;0.30;99.90;;;;;;4888128;29;20927;-81
2021/03/03 07:25:05;;;;;;;0.60;0.60;;;1.20;99.90;;;;;;4895102;29;20218;-81
2021/03/03 07:27:33;;;;;;;0.60;0.60;;;3.00;99.90;;;;;;4895026;29;20288;-81
2021/03/03 07:30:11;;;;;;;0.50;0.50;;;0.30;99.90;;;;;;4912638;29;20217;-81
2021/03/03 07:32:41;;;;;;;0.50;0.50;;;3.10;99.90;;;;;;4916208;29;20218;-81
2021/03/03 07:35:17;;;;;;;0.60;0.60;;;2.10;99.90;;;;;;4911193;29;20222;-81
2021/03/03 07:37:51;;;;;;;0.60;0.60;;;5.30;99.90;;;;;;4914668;29;20202;-81
2021/03/03 07:40:45;;;;;;;0.55;0.55;;;2.20;99.90;;;;;;4917543;29;20224;-81
2021/03/03 07:43:39;;;;;;;0.57;0.57;;;2.30;99.90;;;;;;4906098;29;20250;-81
2021/03/03 07:46:11;;;;;;;0.60;0.60;;;0.60;99.90;;;;;;4913768;29;20209;-81
2021/03/03 07:48:44;;;;;;;0.50;0.50;;;0.50;99.90;;;;;;4908611;29;20230;-81
2021/03/03 07:51:11;;;;;;;0.50;0.50;;;0.30;99.90;;;;;;4918414;29;20237;-81
2021/03/03 07:53:59;;;;;;;;;;;;;;;;;;;;;
2021/03/03 07:56:28;;;;;;;0.60;0.60;;;3.70;99.90;;;;;;5094017;23;20256;-81
2021/03/03 07:59:11;;;;;;;0.50;0.50;;;2.30;99.90;;;;;;5629117;23;20229;-80
2021/03/03 08:15:21;;;;;;;0.60;0.60;;;1.70;99.90;;;;;;4923289;29;20227;-81
2021/03/03 08:17:48;;;;;;;0.60;0.60;;;0.60;99.90;;;;;;4922353;29;20245;-80
2021/03/03 08:20:46;;;;;;;0.50;0.50;;;2.30;99.90;;;;;;4940964;29;20209;-80
2021/03/03 08:25:54;;;;;;;0.50;0.50;;;2.00;99.90;;;;;;5072721;23;20243;-81
2021/03/03 08:31:32;;;;;;;0.50;0.50;;;2.30;99.90;;;;;;5097023;23;20242;-81
2021/03/03 08:34:06;;;;;;;0.50;0.50;;;3.80;99.90;;;;;;5402001;23;20216;-79
2021/03/03 08:37:04;;;;;;;0.50;0.50;;;2.30;99.90;;;;;;4892092;29;20217;-81
2021/03/03 08:39:35;;;;;;;0.50;0.50;;;2.80;99.90;;;;;;4887150;29;20214;-81
2021/03/03 08:42:46;;;;;;;0.50;0.50;;;2.70;99.90;;;;;;4888909;29;20230;-81
2021/03/03 08:45:14;;;;;;;0.50;0.50;;;3.10;99.90;;;;;;4891070;29;20210;-81
2021/03/03 08:47:53;;;;;;;0.50;0.50;;;3.40;99.90;;;;;;4902911;29;20197;-81
2021/03/03 08:50:49;;;;;;;0.50;0.50;;;3.20;99.90;;;;;;4882939;29;20249;-82
2021/03/03 08:53:33;;;;;;;0.50;0.50;;;3.40;99.90;;;;;;4868999;29;20207;-80
2021/03/03 08:56:21;;;;;;;0.50;0.50;;;3.50;99.90;;;;;;4891536;29;20217;-80
2021/03/03 08:58:50;;;;;;;0.60;0.60;;;3.70;99.90;;;;;;4869164;29;20221;-81
2021/03/03 09:04:01;;;;;;;0.60;0.60;;;3.80;99.90;;;;;;4971767;23;20284;-81
2021/03/03 09:06:27;;;;;;;0.55;0.55;;;3.70;99.90;;;;;;4926947;29;20208;-80
2021/03/03 09:09:01;;;;;;;0.50;0.50;;;3.90;99.90;;;;;;4913246;29;20217;-81
2021/03/03 09:11:27;;;;;;;0.50;0.50;;;3.90;99.90;;;;;;4910480;29;20209;-80
2021/03/03 09:13:56;;;;;;;0.60;0.60;;;4.30;99.90;;;;;;4912252;29;20201;-80
2021/03/03 09:16:23;;;;;;;0.60;0.60;;;4.50;99.90;;;;;;4917017;29;20377;-80
2021/03/03 09:19:04;;;;;;;0.60;0.60;;;4.00;99.90;;;;;;4914651;29;20637;-79
2021/03/03 09:21:33;;;;;;;0.50;0.50;;;4.50;99.90;;;;;;5654371;23;20241;-81
2021/03/03 09:24:10;;;;;;;0.60;0.60;;;6.90;99.90;;;;;;4896509;29;20320;-82
2021/03/03 09:34:24;;;;;;;0.50;0.50;;;5.20;99.90;;;;;;5400729;23;20641;-79
2021/03/03 09:44:48;;;;;;;0.60;0.60;;;5.80;99.90;;;;;;5021309;23;20317;-80
2021/03/03 09:47:27;;;;;;;0.60;0.60;;;9.30;99.90;;;;;;4918493;29;20217;-80
2021/03/03 09:49:56;;;;;;;0.60;0.60;;;7.60;99.90;;;;;;4920167;29;20230;-80
2021/03/03 09:52:23;;;;;;;0.50;0.50;;;8.80;99.90;;;;;;4920835;29;20240;-80
2021/03/03 09:54:52;;;;;;;0.50;0.50;;;7.40;99.90;;;;;;4920943;29;20225;-80
2021/03/03 09:57:27;;;;;;;0.50;0.50;;;7.20;99.90;;;;;;4932912;29;20213;-79
2021/03/03 09:59:58;;;;;;;0.55;0.55;;;6.90;99.90;;;;;;5295043;23;20243;-81
2021/03/03 10:02:34;;;;;;;0.60;0.60;;;6.60;99.90;;;;;;5546798;23;20312;-81
2021/03/03 10:05:33;;;;;;;0.50;0.50;;;7.60;99.90;;;;;;4923789;29;20281;-80
2021/03/03 10:08:13;;;;;;;0.60;0.60;;;6.10;99.90;;;;;;4923504;29;20190;-81
2021/03/03 10:10:47;;;;;;;0.57;0.57;;;7.20;99.90;;;;;;4922036;29;20214;-81
2021/03/03 10:13:27;;;;;;;0.60;0.60;;;9.20;99.90;;;;;;4922997;29;20263;-81
2021/03/03 10:15:53;;;;;;;0.60;0.60;;;7.20;99.90;;;;;;4897169;29;20449;-81
2021/03/03 10:18:21;;;;;;;0.50;0.50;;;7.60;99.90;;;;;;4897643;29;20394;-81
2021/03/03 10:20:51;;;;;;;0.60;0.60;;;6.90;99.90;;;;;;4895788;29;20288;-81
2021/03/03 10:23:20;;;;;;;0.50;0.50;;;7.00;99.90;;;;;;4897053;29;20697;-81
2021/03/03 10:25:48;;;;;;;0.60;0.60;;;7.20;99.90;;;;;;4896516;29;20206;-82
2021/03/03 10:28:16;;;;;;;0.60;0.60;;;8.20;99.90;;;;;;4895039;29;20213;-81
2021/03/03 10:30:45;;;;;;;0.60;0.60;;;6.60;99.90;;;;;;4898077;29;20213;-81
2021/03/03 10:33:24;;;;;;;0.50;0.50;;;9.30;99.90;;;;;;4898502;29;20216;-81
2021/03/03 10:35:53;;;;;;;0.60;0.60;;;7.80;99.90;;;;;;4899068;29;20206;-81
2021/03/03 10:38:25;;;;;;;0.60;0.60;;;10.10;99.90;;;;;;4903593;29;20206;-81
2021/03/03 10:40:53;;;;;;;0.60;0.60;;;10.70;99.90;;;;;;4899527;29;20264;-81
2021/03/03 10:43:24;;;;;;;0.50;0.50;;;9.30;99.90;;;;;;4897270;29;20222;-81
2021/03/03 10:46:08;;;;;;;0.60;0.60;;;11.10;99.90;;;;;;4898412;29;20210;-81
2021/03/03 10:48:41;;;;;;;0.50;0.50;;;9.70;99.90;;;;;;4898651;29;20257;-82
2021/03/03 10:51:08;;;;;;;0.57;0.57;;;9.80;99.90;;;;;;4895373;29;20234;-81
2021/03/03 10:53:46;;;;;;;0.60;0.60;;;10.00;99.90;;;;;;4894239;29;20214;-81
2021/03/03 10:56:25;;;;;;;0.60;0.60;;;10.30;99.90;;;;;;4900358;29;20209;-81
2021/03/03 10:58:51;;;;;;;0.60;0.60;;;10.80;99.90;;;;;;4885926;29;20215;-82
2021/03/03 11:01:19;;;;;;;0.60;0.60;;;12.00;99.90;;;;;;4894935;29;20215;-81
2021/03/03 11:03:50;;;;;;;0.60;0.60;;;10.80;99.90;;;;;;4897817;29;20297;-80
2021/03/03 11:06:18;;;;;;;0.60;0.60;;;10.20;99.90;;;;;;4898116;29;20224;-80
2021/03/03 11:08:44;;;;;;;0.60;0.60;;;11.00;99.90;;;;;;4893348;29;20251;-81
2021/03/03 11:11:10;;;;;;;0.60;0.60;;;12.80;99.90;;;;;;4897964;29;20575;-81
2021/03/03 11:13:37;;;;;;;0.60;0.60;;;11.30;99.90;;;;;;4898332;29;20205;-81
2021/03/03 11:16:04;;;;;;;0.60;0.60;;;11.60;99.90;;;;;;4898204;29;20202;-81
2021/03/03 11:18:30;;;;;;;0.60;0.60;;;11.70;99.90;;;;;;4897653;29;20293;-81
2021/03/03 11:20:58;;;;;;;0.60;0.60;;;11.80;99.90;;;;;;4896833;29;20216;-80
2021/03/03 11:23:26;;;;;;;0.57;0.57;;;12.10;99.90;;;;;;4895918;29;20332;-81
2021/03/03 11:25:52;;;;;;;0.60;0.60;;;12.10;99.90;;;;;;4893099;29;20280;-81
2021/03/03 11:28:18;;;;;;;0.60;0.60;;;11.60;99.90;;;;;;4896859;29;20214;-82
2021/03/03 11:30:45;;;;;;;0.60;0.60;;;12.30;99.90;;;;;;4910888;29;20217;-81
2021/03/03 11:33:11;;;;;;;0.60;0.60;;;12.50;99.90;;;;;;4897185;29;20206;-80
2021/03/03 11:35:38;;;;;;;0.55;0.55;;;12.80;99.90;;;;;;4905860;29;20209;-81
2021/03/03 11:38:05;;;;;;;0.60;0.60;;;13.00;99.90;;;;;;5068372;23;20304;-79
2021/03/03 11:40:37;;;;;;;0.60;0.60;;;12.50;99.90;;;;;;4922061;29;20209;-81
2021/03/03 11:48:34;;;;;;;0.60;0.60;;;13.90;99.90;;;;;;5513398;23;20236;-80
2021/03/03 12:04:29;;;;;;;0.60;0.60;;;14.90;99.90;;;;;;5892221;23;20184;-84
2021/03/03 12:07:06;;;;;;;0.60;0.60;;;17.60;99.90;;;;;;4939889;28;20193;-81
2021/03/03 12:12:52;;;;;;;0.60;0.60;;;15.70;99.90;;;;;;4913184;28;20212;-81
2021/03/03 12:18:25;;;;;;;0.60;0.60;;;14.40;99.90;;;;;;4928510;23;20964;-84
2021/03/03 12:20:57;;;;;;;0.60;0.60;;;15.70;99.90;;;;;;4900486;29;20232;-84
2021/03/03 12:23:24;;;;;;;0.60;0.60;;;14.30;99.90;;;;;;4916672;29;21038;-85
2021/03/03 12:25:58;;;;;;;0.60;0.60;;;14.10;99.90;;;;;;4915569;29;20209;-85
2021/03/03 12:28:25;;;;;;;0.60;0.60;;;15.70;99.90;;;;;;4916482;29;20206;-84
2021/03/03 12:30:54;;;;;;;0.60;0.60;;;13.80;99.90;;;;;;4916498;29;20225;-85
2021/03/03 12:40:29;;;;;;;0.60;0.60;;;16.90;99.90;;;;;;4917490;29;20217;-85
2021/03/03 13:00:08;;;;;;;0.60;0.60;;;14.80;99.90;;;;;;5455944;23;20236;-81
2021/03/03 13:05:18;;;;;;;0.60;0.60;;;14.80;99.90;;;;;;4937143;29;20193;-81
2021/03/03 13:07:59;;;;;;;0.60;0.60;;;17.00;99.90;;;;;;4939682;29;20213;-80
2021/03/03 13:10:30;;;;;;;0.60;0.60;;;14.00;99.90;;;;;;4939441;29;20217;-81
2021/03/03 13:13:02;;;;;;;0.60;0.60;;;15.50;99.90;;;;;;4937874;29;20204;-81
2021/03/03 13:15:33;;;;;;;0.60;0.60;;;16.60;99.90;;;;;;4935533;29;20228;-81
2021/03/03 13:17:59;;;;;;;0.55;0.55;;;15.70;99.90;;;;;;4931477;29;20272;-82
2021/03/03 13:20:26;;;;;;;0.50;0.50;;;15.30;99.90;;;;;;4930746;29;20216;-80
2021/03/03 13:22:53;;;;;;;0.60;0.60;;;15.60;99.90;;;;;;4936617;29;20236;-80
2021/03/03 13:25:21;;;;;;;0.60;0.60;;;15.60;99.90;;;;;;4928109;29;20197;-80
2021/03/03 13:27:47;;;;;;;0.60;0.60;;;15.80;99.90;;;;;;4928270;29;20221;-80
2021/03/03 13:30:15;;;;;;;0.60;0.60;;;14.50;99.90;;;;;;4928456;29;20209;-80
2021/03/03 13:32:42;;;;;;;0.60;0.60;;;15.20;99.90;;;;;;4927456;29;20212;-80
2021/03/03 13:35:10;;;;;;;0.60;0.60;;;14.90;99.90;;;;;;4927829;29;20284;-80
2021/03/03 13:37:38;;;;;;;0.60;0.60;;;14.60;99.90;;;;;;4925868;29;20209;-80
2021/03/03 13:40:06;;;;;;;0.60;0.60;;;14.60;99.90;;;;;;4931625;29;20217;-81
2021/03/03 13:42:33;;;;;;;0.60;0.60;;;14.70;99.90;;;;;;4935140;29;20221;-82
2021/03/03 13:45:01;;;;;;;0.60;0.60;;;14.90;99.90;;;;;;4931742;29;20224;-81
2021/03/03 13:47:28;;;;;;;0.60;0.60;;;16.40;99.90;;;;;;4925906;29;20205;-81
2021/03/03 13:49:55;;;;;;;0.60;0.60;;;14.90;99.90;;;;;;4926659;29;20201;-81
2021/03/03 13:52:22;;;;;;;0.60;0.60;;;14.80;99.90;;;;;;4917970;29;20210;-81
2021/03/03 13:55:06;;;;;;;0.60;0.60;;;15.30;99.90;;;;;;4920652;29;20245;-81
2021/03/03 13:57:33;;;;;;;0.60;0.60;;;17.30;99.90;;;;;;4915455;29;20217;-82
2021/03/03 13:59:59;;;;;;;0.60;0.60;;;15.10;99.90;;;;;;4906086;29;20293;-81
2021/03/03 14:02:29;;;;;;;0.60;0.60;;;16.00;99.90;;;;;;4908541;29;20245;-81
2021/03/03 14:04:56;;;;;;;0.60;0.60;;;16.40;99.90;;;;;;5131123;23;20715;-80
2021/03/03 14:07:22;;;;;;;0.60;0.60;;;15.10;99.90;;;;;;4912697;29;20217;-80
2021/03/03 14:09:49;;;;;;;0.60;0.60;;;15.20;99.90;;;;;;4909593;29;20308;-81
2021/03/03 14:12:16;;;;;;;0.60;0.60;;;15.20;99.90;;;;;;4917753;29;20202;-82
2021/03/03 14:14:42;;;;;;;0.60;0.60;;;15.30;99.90;;;;;;4913720;29;20212;-83
2021/03/03 14:17:08;;;;;;;0.57;0.57;;;15.40;99.90;;;;;;4913468;29;20276;-84
2021/03/03 14:19:41;;;;;;;0.60;0.60;;;15.40;99.90;;;;;;4919788;29;20190;-82
2021/03/03 14:22:08;;;;;;;0.60;0.60;;;16.10;99.90;;;;;;4922058;29;20281;-83
2021/03/03 14:24:38;;;;;;;0.60;0.60;;;15.50;99.90;;;;;;4923680;29;20382;-83
2021/03/03 14:27:08;;;;;;;0.60;0.60;;;15.50;99.90;;;;;;4927990;29;20277;-83
2021/03/03 14:29:35;;;;;;;0.60;0.60;;;15.70;99.90;;;;;;4927865;29;20200;-83
2021/03/03 14:32:06;;;;;;;0.57;0.57;;;15.50;99.90;;;;;;4926942;29;20268;-83
2021/03/03 14:34:32;;;;;;;0.60;0.60;;;15.30;99.90;;;;;;4925011;29;20268;-82
2021/03/03 14:36:59;;;;;;;0.60;0.60;;;15.60;99.90;;;;;;4927383;29;20212;-83
2021/03/03 14:39:26;;;;;;;0.60;0.60;;;15.10;99.90;;;;;;4928511;29;20264;-82
2021/03/03 14:41:52;;;;;;;0.60;0.60;;;15.10;99.90;;;;;;4927032;29;20212;-82
2021/03/03 14:44:19;;;;;;;0.60;0.60;;;15.00;99.90;;;;;;4926298;29;20221;-82
2021/03/03 14:46:45;;;;;;;0.60;0.60;;;14.50;99.90;;;;;;4924094;29;20264;-82
2021/03/03 14:49:12;;;;;;;0.60;0.60;;;17.30;99.90;;;;;;4924235;29;20248;-82
2021/03/03 14:51:41;;;;;;;0.60;0.60;;;15.20;99.90;;;;;;4923547;29;20229;-82
2021/03/03 14:54:08;;;;;;;0.60;0.60;;;14.10;99.90;;;;;;4904123;29;20260;-85
2021/03/03 14:56:38;;;;;;;0.60;0.60;;;12.90;99.90;;;;;;4896105;29;20943;-83
2021/03/03 14:59:07;;;;;;;0.60;0.60;;;15.20;99.90;;;;;;4896987;29;20728;-83
2021/03/03 15:01:34;;;;;;;0.60;0.60;;;14.30;99.90;;;;;;4894568;29;20514;-83